James Golding — WDG8741 — position and weather

sailwx.info

Track history (hours):
 
Tides and Currents Weather Stations Pressure Air Temp Water Temp Dewpoint Dewpoint Depression Visibility Wind Speed Wind Dir Waves Ship Positions

James Golding

Owner: GOLDING BARGE LINE, INC, VICKSBURG, MS. More information available from US FCC via Universal Licensing System and Coast Guard Vessel Documentation Center.

Last reported at 2018-Jan-11 23:25 UTC. Time now 2018-Jan-19 01:16 UTC.
Position N 29°22' W 094°53'.

Length 209 m; draft 2.9 m.

Type: . MMSI: 367580620.

Date/timePositionNaut miles runAvg speedWind from/ knotsBaromVisibWave heightAir tempDewpointWater temp
2018-Jan-11 23:25N 29°22' W 094°53'77 1.5
2018-Jan-09 19:34N 30°04' W 093°39'0 5.0
2018-Jan-09 19:30N 30°04' W 093°39'3 4.8
2018-Jan-09 18:56N 30°04' W 093°36'2 5.0
2018-Jan-09 18:29N 30°04' W 093°33'2 4.9
2018-Jan-09 18:00N 30°04' W 093°31'3 5.0
2018-Jan-09 17:30N 30°04' W 093°28'2 5.0
2018-Jan-09 17:00N 30°04' W 093°25'2 4.8
2018-Jan-09 16:30N 30°04' W 093°22'2 3.3
2018-Jan-09 16:00N 30°04' W 093°20'2 3.3
2018-Jan-09 15:30N 30°06' W 093°19'1 1.9
2018-Jan-09 15:00N 30°06' W 093°18'1 1.5
2018-Jan-09 14:30N 30°05' W 093°18'0 0.4
2018-Jan-09 14:00N 30°05' W 093°17'1 1.1
2018-Jan-09 13:30N 30°05' W 093°17'0 0.9
2018-Jan-09 13:00N 30°04' W 093°16'1 1.2
2018-Jan-09 12:30N 30°04' W 093°16'0 0.2
2018-Jan-09 12:00N 30°04' W 093°16'0 0.0
2018-Jan-09 11:30N 30°04' W 093°16'0 0.2
2018-Jan-09 11:00N 30°04' W 093°16'0 0.5
2018-Jan-09 10:30N 30°04' W 093°16'1 2.0
2018-Jan-09 10:00N 30°03' W 093°16'2 3.9
2018-Jan-09 09:30N 30°01' W 093°14'2 3.9
2018-Jan-09 09:00N 29°60' W 093°13'2 4.3
2018-Jan-09 08:30N 29°58' W 093°11'2 4.3
2018-Jan-09 08:00N 29°56' W 093°10'2 4.0
2018-Jan-09 07:30N 29°56' W 093°07'2 4.2
2018-Jan-09 07:00N 29°56' W 093°05'40 3.8
2018-Jan-08 20:38N 29°50' W 092°20'1 4.2
2018-Jan-08 20:21N 29°50' W 092°18'1 4.2
2018-Jan-08 20:00N 29°49' W 092°17'2 3.2
2018-Jan-08 19:30N 29°48' W 092°16'2 4.5
2018-Jan-08 19:00N 29°47' W 092°13'2 3.6
2018-Jan-08 18:30N 29°47' W 092°11'0 0.8
2018-Jan-08 18:00N 29°47' W 092°11'0 0.9
2018-Jan-08 17:30N 29°47' W 092°10'2 3.5
2018-Jan-08 17:00N 29°47' W 092°08'2 4.5
2018-Jan-08 16:30N 29°48' W 092°06'2 4.4
2018-Jan-08 16:00N 29°49' W 092°04'2 3.6
2018-Jan-08 15:30N 29°49' W 092°02'57 2.8
2018-Jan-07 19:02N 29°36' W 090°58'0 4.5
2018-Jan-07 19:00N 29°36' W 090°58'3 4.4
2018-Jan-07 18:12N 29°34' W 090°55'2 4.9
2018-Jan-07 17:54N 29°33' W 090°54'2 4.6
2018-Jan-07 17:28N 29°32' W 090°52'2 4.8
2018-Jan-07 17:00N 29°32' W 090°49'2 4.8
2018-Jan-07 16:30N 29°32' W 090°46'2 4.1
2018-Jan-07 16:00N 29°34' W 090°45'2 3.6
2018-Jan-07 15:30N 29°35' W 090°43'2 3.7
2018-Jan-07 15:00N 29°36' W 090°43'1 2.1
2018-Jan-07 14:30N 29°37' W 090°41'0 0.1
2018-Jan-07 14:00N 29°36' W 090°41'1 1.3
2018-Jan-07 13:30N 29°36' W 090°41'1 2.7
2018-Jan-07 13:00N 29°36' W 090°39'2 3.6
2018-Jan-07 12:30N 29°35' W 090°37'2 3.7
2018-Jan-07 12:00N 29°35' W 090°35'2 3.9
2018-Jan-07 11:30N 29°34' W 090°33'  
Track history (hours):
 
Tides and Currents Weather Stations Pressure Air Temp Water Temp Dewpoint Dewpoint Depression Visibility Wind Speed Wind Dir Waves Ship Positions

James Golding

Owner: GOLDING BARGE LINE, INC, VICKSBURG, MS. More information available from US FCC via Universal Licensing System and Coast Guard Vessel Documentation Center.

Last reported at 2018-Jan-11 23:25 UTC. Time now 2018-Jan-19 01:16 UTC.
Position N 29°22' W 094°53'.

Length 209 m; draft 2.9 m.

Type: . MMSI: 367580620.

Date/timePositionNaut miles runAvg speedWind from/ knotsBaromVisibWave heightAir tempDewpointWater temp
2018-Jan-11 23:25N 29°22' W 094°53'77 1.5
2018-Jan-09 19:34N 30°04' W 093°39'0 5.0
2018-Jan-09 19:30N 30°04' W 093°39'3 4.8
2018-Jan-09 18:56N 30°04' W 093°36'2 5.0
2018-Jan-09 18:29N 30°04' W 093°33'2 4.9
2018-Jan-09 18:00N 30°04' W 093°31'3 5.0
2018-Jan-09 17:30N 30°04' W 093°28'2 5.0
2018-Jan-09 17:00N 30°04' W 093°25'2 4.8
2018-Jan-09 16:30N 30°04' W 093°22'2 3.3
2018-Jan-09 16:00N 30°04' W 093°20'2 3.3
2018-Jan-09 15:30N 30°06' W 093°19'1 1.9
2018-Jan-09 15:00N 30°06' W 093°18'1 1.5
2018-Jan-09 14:30N 30°05' W 093°18'0 0.4
2018-Jan-09 14:00N 30°05' W 093°17'1 1.1
2018-Jan-09 13:30N 30°05' W 093°17'0 0.9
2018-Jan-09 13:00N 30°04' W 093°16'1 1.2
2018-Jan-09 12:30N 30°04' W 093°16'0 0.2
2018-Jan-09 12:00N 30°04' W 093°16'0 0.0
2018-Jan-09 11:30N 30°04' W 093°16'0 0.2
2018-Jan-09 11:00N 30°04' W 093°16'0 0.5
2018-Jan-09 10:30N 30°04' W 093°16'1 2.0
2018-Jan-09 10:00N 30°03' W 093°16'2 3.9
2018-Jan-09 09:30N 30°01' W 093°14'2 3.9
2018-Jan-09 09:00N 29°60' W 093°13'2 4.3
2018-Jan-09 08:30N 29°58' W 093°11'2 4.3
2018-Jan-09 08:00N 29°56' W 093°10'2 4.0
2018-Jan-09 07:30N 29°56' W 093°07'2 4.2
2018-Jan-09 07:00N 29°56' W 093°05'40 3.8
2018-Jan-08 20:38N 29°50' W 092°20'1 4.2
2018-Jan-08 20:21N 29°50' W 092°18'1 4.2
2018-Jan-08 20:00N 29°49' W 092°17'2 3.2
2018-Jan-08 19:30N 29°48' W 092°16'2 4.5
2018-Jan-08 19:00N 29°47' W 092°13'2 3.6
2018-Jan-08 18:30N 29°47' W 092°11'0 0.8
2018-Jan-08 18:00N 29°47' W 092°11'0 0.9
2018-Jan-08 17:30N 29°47' W 092°10'2 3.5
2018-Jan-08 17:00N 29°47' W 092°08'2 4.5
2018-Jan-08 16:30N 29°48' W 092°06'2 4.4
2018-Jan-08 16:00N 29°49' W 092°04'2 3.6
2018-Jan-08 15:30N 29°49' W 092°02'57 2.8
2018-Jan-07 19:02N 29°36' W 090°58'0 4.5
2018-Jan-07 19:00N 29°36' W 090°58'3 4.4
2018-Jan-07 18:12N 29°34' W 090°55'2 4.9
2018-Jan-07 17:54N 29°33' W 090°54'2 4.6
2018-Jan-07 17:28N 29°32' W 090°52'2 4.8
2018-Jan-07 17:00N 29°32' W 090°49'2 4.8
2018-Jan-07 16:30N 29°32' W 090°46'2 4.1
2018-Jan-07 16:00N 29°34' W 090°45'2 3.6
2018-Jan-07 15:30N 29°35' W 090°43'2 3.7
2018-Jan-07 15:00N 29°36' W 090°43'1 2.1
2018-Jan-07 14:30N 29°37' W 090°41'0 0.1
2018-Jan-07 14:00N 29°36' W 090°41'1 1.3
2018-Jan-07 13:30N 29°36' W 090°41'1 2.7
2018-Jan-07 13:00N 29°36' W 090°39'2 3.6
2018-Jan-07 12:30N 29°35' W 090°37'2 3.7
2018-Jan-07 12:00N 29°35' W 090°35'2 3.9
2018-Jan-07 11:30N 29°34' W 090°33'  

Dump ship's entire track history